Terminal Aerodrome Forecast
Issued by NWS

Home | Current Version | Previous Version | Text Only | Print | Product List | Glossary On
Versions: 1 2 3 4 5 6 7 8 9 10 11 12 13 14 15 16 17 18 19
000
FTUS43 KPAH 211722
TAFCGI
TAF
KCGI 211722Z 2118/2218 01011KT P6SM -RA OVC011
     FM212200 02012KT 6SM -RA BR OVC008
     FM220200 02013KT 4SM RA BR OVC008
     FM220800 03010KT 4SM BR OVC008
     FM221500 03007KT P6SM OVC008=

USA.gov is the U.S. government's official web portal to all federal, state and local government web resources and services.